Time;durP1;ratioP1;P1;durP2;ratioP2;P2;SDS_P1;SDS_P2;PMS_P1;PMS_P2;Temp;Humidity;BMP_temperature;BMP_pressure;BME280_temperature;BME280_humidity;BME280_pressure;Samples;Min_cycle;Max_cycle;Signal;HPM_P1;HPM_P2
2024/02/02 00:00:19;;;;;;;27.20;4.70;;;5.40;99.90;;;;;;5031669;28;20021;-73
2024/02/02 00:02:45;;;;;;;25.70;6.45;;;5.40;99.90;;;;;;5033875;28;20024;-73
2024/02/02 00:05:10;;;;;;;27.00;4.45;;;5.40;99.90;;;;;;5032747;28;20029;-73
2024/02/02 00:07:36;;;;;;;31.92;5.13;;;5.40;99.90;;;;;;5032545;28;20462;-72
2024/02/02 00:10:02;;;;;;;28.80;5.32;;;5.40;99.90;;;;;;5032522;28;20021;-73
2024/02/02 00:12:27;;;;;;;26.00;6.15;;;5.40;99.90;;;;;;5043400;28;20033;-73
2024/02/02 00:14:53;;;;;;;22.45;5.95;;;5.40;99.90;;;;;;5036563;28;20021;-73
2024/02/02 00:17:19;;;;;;;26.33;5.25;;;5.50;99.90;;;;;;5032705;28;20037;-73
2024/02/02 00:19:45;;;;;;;31.00;4.80;;;5.50;99.90;;;;;;5031854;28;20056;-73
2024/02/02 00:22:11;;;;;;;20.08;5.20;;;5.50;99.90;;;;;;5032226;28;20057;-72
2024/02/02 00:24:37;;;;;;;21.23;4.93;;;5.50;99.90;;;;;;5031222;28;20029;-72
2024/02/02 00:27:02;;;;;;;28.17;5.53;;;5.50;99.90;;;;;;5031676;28;20022;-73
2024/02/02 00:29:28;;;;;;;27.30;5.03;;;5.50;99.90;;;;;;5032257;28;20068;-73
2024/02/02 00:31:54;;;;;;;26.58;4.43;;;5.60;99.90;;;;;;5031558;28;20034;-73
2024/02/02 00:34:19;;;;;;;21.92;5.35;;;5.50;99.90;;;;;;5032390;28;20496;-72
2024/02/02 00:36:45;;;;;;;24.27;4.55;;;5.60;99.90;;;;;;5031449;28;20730;-73
2024/02/02 00:39:10;;;;;;;24.38;4.53;;;5.60;99.90;;;;;;5032453;28;20477;-73
2024/02/02 00:41:36;;;;;;;23.58;4.35;;;5.60;99.90;;;;;;5032508;28;20068;-73
2024/02/02 00:44:03;;;;;;;28.80;4.40;;;5.60;99.90;;;;;;5037019;28;20056;-73
2024/02/02 00:46:29;;;;;;;27.45;5.25;;;5.60;99.90;;;;;;5030480;28;20029;-73
2024/02/02 00:48:54;;;;;;;26.33;4.55;;;5.60;99.90;;;;;;5031286;28;20543;-73
2024/02/02 00:51:20;;;;;;;24.92;4.47;;;5.60;99.90;;;;;;5030720;28;20117;-73
2024/02/02 00:53:45;;;;;;;16.70;3.83;;;5.70;99.90;;;;;;5045447;28;20032;-73
2024/02/02 00:56:11;;;;;;;21.95;4.00;;;5.70;99.90;;;;;;5052045;28;20017;-73
2024/02/02 00:58:37;;;;;;;16.75;4.03;;;5.70;99.90;;;;;;5037004;28;20124;-73
2024/02/02 01:01:02;;;;;;;18.55;5.30;;;5.70;99.90;;;;;;5031224;28;20473;-73
2024/02/02 01:03:28;;;;;;;25.38;5.40;;;5.70;99.90;;;;;;5031848;28;20029;-73
2024/02/02 01:05:54;;;;;;;24.30;4.60;;;5.70;99.90;;;;;;5031426;28;20473;-73
2024/02/02 01:08:20;;;;;;;25.13;4.85;;;5.70;99.90;;;;;;5031189;28;20032;-73
2024/02/02 01:10:45;;;;;;;31.00;4.65;;;5.70;99.90;;;;;;5031640;28;20070;-73
2024/02/02 01:13:11;;;;;;;23.38;4.43;;;5.70;99.90;;;;;;5049100;28;20051;-73
2024/02/02 01:15:37;;;;;;;24.13;5.05;;;5.70;99.90;;;;;;5048310;28;20033;-72
2024/02/02 01:18:07;;;;;;;23.55;4.72;;;5.70;99.90;;;;;;5031212;28;20033;-73
2024/02/02 01:20:33;;;;;;;24.90;5.07;;;5.80;99.90;;;;;;5031440;28;20021;-72
2024/02/02 01:22:59;;;;;;;21.98;4.88;;;5.80;99.90;;;;;;5043175;28;20037;-73
2024/02/02 01:25:29;;;;;;;24.65;4.30;;;5.80;99.90;;;;;;5042716;28;20025;-73
2024/02/02 01:27:55;;;;;;;18.50;4.70;;;5.80;99.90;;;;;;5031148;28;20026;-73
2024/02/02 01:30:20;;;;;;;22.58;4.88;;;5.80;99.90;;;;;;5031201;28;20018;-73
2024/02/02 01:32:46;;;;;;;22.17;5.28;;;5.80;99.90;;;;;;5030667;28;20374;-73
2024/02/02 01:35:11;;;;;;;21.52;5.22;;;5.80;99.90;;;;;;5031482;28;20034;-73
2024/02/02 01:37:37;;;;;;;25.02;5.20;;;5.80;99.90;;;;;;5029932;28;20029;-73
2024/02/02 01:40:04;;;;;;;25.23;5.82;;;5.90;99.90;;;;;;5031071;28;20014;-73
2024/02/02 01:42:29;;;;;;;21.67;5.20;;;5.90;99.90;;;;;;5030842;28;20038;-73
2024/02/02 01:44:55;;;;;;;17.98;5.68;;;5.90;99.90;;;;;;5030421;28;20025;-73
2024/02/02 01:47:21;;;;;;;24.33;5.22;;;5.90;99.90;;;;;;5031984;28;20525;-72
2024/02/02 01:49:48;;;;;;;27.05;5.63;;;5.90;99.90;;;;;;5035247;28;20021;-73
2024/02/02 01:52:14;;;;;;;24.98;5.97;;;5.90;99.90;;;;;;5034309;28;20486;-73
2024/02/02 01:54:39;;;;;;;27.60;6.07;;;5.90;99.90;;;;;;5035322;28;20036;-73
2024/02/02 01:57:05;;;;;;;28.15;5.55;;;5.90;99.90;;;;;;5034646;28;20025;-73
2024/02/02 01:59:31;;;;;;;24.13;6.30;;;5.90;99.90;;;;;;5035100;28;20021;-73
2024/02/02 02:01:57;;;;;;;23.42;5.35;;;5.90;99.90;;;;;;5035476;28;20028;-73
2024/02/02 02:04:23;;;;;;;26.10;6.15;;;5.90;99.90;;;;;;5034374;28;20021;-73
2024/02/02 02:06:48;;;;;;;23.58;5.40;;;5.90;99.90;;;;;;5042684;28;20033;-73
2024/02/02 02:09:14;;;;;;;32.75;7.00;;;5.90;99.90;;;;;;5034986;28;20473;-73
2024/02/02 02:11:41;;;;;;;24.88;6.65;;;5.90;99.90;;;;;;5034788;28;20029;-72
2024/02/02 02:14:07;;;;;;;21.10;6.20;;;5.90;99.90;;;;;;5049003;28;20022;-73
2024/02/02 02:16:33;;;;;;;26.92;6.57;;;5.90;99.90;;;;;;5034854;28;20026;-73
2024/02/02 02:19:00;;;;;;;17.85;5.82;;;5.90;99.90;;;;;;5034098;28;20028;-72
2024/02/02 02:21:27;;;;;;;25.20;7.53;;;5.90;99.90;;;;;;5033869;28;20469;-73
2024/02/02 02:23:54;;;;;;;24.65;6.43;;;5.90;99.90;;;;;;5034394;28;20030;-72
2024/02/02 02:26:20;;;;;;;19.67;6.55;;;5.90;99.90;;;;;;5034523;28;20069;-72
2024/02/02 02:28:46;;;;;;;34.13;8.07;;;5.90;99.90;;;;;;5034167;28;20022;-72
2024/02/02 02:31:16;;;;;;;26.55;6.97;;;5.90;99.90;;;;;;5034426;28;20034;-72
2024/02/02 02:33:43;;;;;;;26.67;7.65;;;5.90;99.90;;;;;;5034454;28;20108;-73
2024/02/02 02:36:12;;;;;;;23.63;6.80;;;5.90;99.90;;;;;;5033881;28;20028;-73
2024/02/02 02:38:38;;;;;;;21.38;6.85;;;5.90;99.90;;;;;;5034578;28;20037;-73
2024/02/02 02:41:04;;;;;;;24.25;6.72;;;6.00;99.90;;;;;;5034022;28;20023;-73
2024/02/02 02:43:30;;;;;;;28.80;7.80;;;6.00;99.90;;;;;;5033644;28;20025;-73
2024/02/02 02:45:56;;;;;;;35.58;8.48;;;5.90;99.90;;;;;;5033831;28;20117;-73
2024/02/02 02:48:22;;;;;;;26.25;7.95;;;5.90;99.90;;;;;;5034082;28;20446;-72
2024/02/02 02:50:48;;;;;;;26.05;8.30;;;5.90;99.90;;;;;;5033158;28;20029;-73
2024/02/02 02:53:14;;;;;;;28.17;7.78;;;5.90;99.90;;;;;;5034227;28;20033;-73
2024/02/02 02:55:39;;;;;;;25.23;7.70;;;5.90;99.90;;;;;;5034298;28;20026;-72
2024/02/02 02:58:05;;;;;;;26.80;8.80;;;5.90;99.90;;;;;;5033290;28;20104;-72
2024/02/02 03:00:31;;;;;;;24.27;9.75;;;5.90;99.90;;;;;;5033708;28;20014;-72
2024/02/02 03:03:00;;;;;;;26.05;8.23;;;5.90;99.90;;;;;;5053871;28;20035;-73
2024/02/02 03:05:27;;;;;;;32.15;8.68;;;5.80;99.90;;;;;;5047219;28;20034;-73
2024/02/02 03:07:53;;;;;;;20.88;7.95;;;5.80;99.90;;;;;;5033490;28;20083;-73
2024/02/02 03:10:21;;;;;;;20.80;7.90;;;5.80;99.90;;;;;;5033991;28;20024;-73
2024/02/02 03:12:47;;;;;;;26.63;8.13;;;5.80;99.90;;;;;;5032902;28;20049;-73
2024/02/02 03:15:13;;;;;;;29.52;8.73;;;5.80;99.90;;;;;;5033534;28;20018;-72
2024/02/02 03:17:38;;;;;;;23.35;8.32;;;5.80;99.90;;;;;;5033825;28;20031;-72
2024/02/02 03:20:08;;;;;;;18.83;7.78;;;5.70;99.90;;;;;;5033094;28;20021;-73
2024/02/02 03:22:33;;;;;;;24.80;8.30;;;5.70;99.90;;;;;;5033184;28;20038;-73
2024/02/02 03:24:59;;;;;;;25.83;8.88;;;5.70;99.90;;;;;;5031816;28;20353;-73
2024/02/02 03:27:25;;;;;;;25.13;8.82;;;5.70;99.90;;;;;;5033125;28;20025;-73
2024/02/02 03:29:50;;;;;;;25.90;8.07;;;5.70;99.90;;;;;;5033227;28;20148;-73
2024/02/02 03:32:16;;;;;;;28.63;8.68;;;5.60;99.90;;;;;;5032569;28;20048;-72
2024/02/02 03:34:41;;;;;;;26.52;8.43;;;5.60;99.90;;;;;;5032926;28;20104;-72
2024/02/02 03:37:07;;;;;;;20.17;8.50;;;5.60;99.90;;;;;;5033349;28;20543;-73
2024/02/02 03:39:32;;;;;;;27.42;7.50;;;5.50;99.90;;;;;;5033365;28;20021;-73
2024/02/02 03:41:58;;;;;;;27.58;8.15;;;5.50;99.90;;;;;;5032243;28;20056;-72
2024/02/02 03:44:24;;;;;;;26.38;8.10;;;5.50;99.90;;;;;;5047448;28;20029;-73
2024/02/02 03:46:49;;;;;;;23.70;7.65;;;5.40;99.90;;;;;;5052827;28;20603;-72
2024/02/02 03:49:15;;;;;;;20.05;8.15;;;5.40;99.90;;;;;;5038878;28;20049;-73
2024/02/02 03:51:40;;;;;;;24.83;7.65;;;5.40;99.90;;;;;;5033123;28;20069;-73
2024/02/02 03:54:06;;;;;;;23.13;8.40;;;5.40;99.90;;;;;;5041856;28;20047;-73
2024/02/02 03:56:32;;;;;;;29.33;8.52;;;5.40;99.90;;;;;;5037621;28;20044;-72
2024/02/02 03:58:57;;;;;;;22.92;7.60;;;5.30;99.90;;;;;;5032509;28;20031;-73
2024/02/02 04:01:23;;;;;;;25.35;7.25;;;5.40;99.90;;;;;;5033032;28;20076;-72
2024/02/02 04:03:48;;;;;;;33.33;8.98;;;5.40;99.90;;;;;;5035515;28;20079;-73
2024/02/02 04:06:14;;;;;;;22.40;7.22;;;5.40;99.90;;;;;;5052671;28;20025;-72
2024/02/02 04:08:39;;;;;;;22.40;6.93;;;5.40;99.90;;;;;;5048530;28;20425;-73
2024/02/02 04:11:05;;;;;;;19.38;7.18;;;5.30;99.90;;;;;;5031318;28;20113;-72
2024/02/02 04:13:31;;;;;;;20.88;6.57;;;5.40;99.90;;;;;;5032697;28;20482;-73
2024/02/02 04:15:56;;;;;;;30.88;7.25;;;5.40;99.90;;;;;;5049608;28;20027;-73
2024/02/02 04:18:22;;;;;;;25.15;7.22;;;5.40;99.90;;;;;;5047318;28;20029;-73
2024/02/02 04:20:47;;;;;;;18.55;6.47;;;5.40;99.90;;;;;;5031761;28;20021;-73
2024/02/02 04:23:15;;;;;;;29.25;8.27;;;5.40;99.90;;;;;;5031242;28;20489;-72
2024/02/02 04:25:41;;;;;;;26.75;7.43;;;5.40;99.90;;;;;;5032219;28;20025;-72
2024/02/02 04:28:08;;;;;;;22.27;6.68;;;5.50;99.90;;;;;;5032463;28;20021;-73
2024/02/02 04:30:35;;;;;;;23.92;6.35;;;5.50;99.90;;;;;;5032090;28;20469;-73
2024/02/02 04:33:01;;;;;;;23.10;6.50;;;5.50;99.90;;;;;;5031840;28;20474;-72
2024/02/02 04:35:27;;;;;;;22.02;6.57;;;5.50;99.90;;;;;;5032097;28;20022;-72
2024/02/02 04:37:52;;;;;;;25.33;6.22;;;5.50;99.90;;;;;;5031879;28;20021;-72
2024/02/02 04:40:18;;;;;;;26.17;6.65;;;5.50;99.90;;;;;;5032214;28;20056;-72
2024/02/02 04:42:44;;;;;;;27.27;6.55;;;5.50;99.90;;;;;;5031602;28;20096;-73
2024/02/02 04:45:10;;;;;;;23.75;7.43;;;5.50;99.90;;;;;;5031882;28;20041;-73
2024/02/02 04:47:36;;;;;;;20.58;6.10;;;5.60;99.90;;;;;;5020519;28;20049;-73
2024/02/02 04:50:01;;;;;;;21.77;6.93;;;5.60;99.90;;;;;;5016776;28;20033;-72
2024/02/02 04:52:27;;;;;;;21.88;7.25;;;5.60;99.90;;;;;;5031602;28;20076;-72
2024/02/02 04:54:55;;;;;;;22.10;6.53;;;5.60;99.90;;;;;;5031507;28;20048;-72
2024/02/02 04:57:21;;;;;;;24.13;6.25;;;5.60;99.90;;;;;;5017079;28;20088;-72
2024/02/02 04:59:46;;;;;;;18.48;6.05;;;5.70;99.90;;;;;;5011844;28;20026;-72
2024/02/02 05:02:12;;;;;;;21.95;6.43;;;5.70;99.90;;;;;;5029485;28;20060;-72
2024/02/02 05:04:38;;;;;;;30.05;7.80;;;5.70;99.90;;;;;;5034720;28;20104;-72
2024/02/02 05:07:04;;;;;;;24.77;6.45;;;5.70;99.90;;;;;;5051560;28;20425;-72
2024/02/02 05:09:29;;;;;;;17.52;5.53;;;5.70;99.90;;;;;;5048762;28;20029;-72
2024/02/02 05:11:55;;;;;;;26.77;6.75;;;5.80;99.90;;;;;;5031113;28;20422;-72
2024/02/02 05:14:20;;;;;;;20.95;6.28;;;5.80;99.90;;;;;;5031761;28;20021;-72
2024/02/02 05:16:46;;;;;;;16.23;5.32;;;5.70;99.90;;;;;;5048492;28;20035;-73
2024/02/02 05:19:12;;;;;;;19.42;5.93;;;5.70;99.90;;;;;;5036008;28;20029;-73
2024/02/02 05:21:37;;;;;;;28.02;5.90;;;5.70;99.90;;;;;;5030874;28;20596;-72
2024/02/02 05:24:04;;;;;;;25.40;5.63;;;5.70;99.90;;;;;;5030899;28;20160;-72
2024/02/02 05:26:30;;;;;;;16.88;5.70;;;5.70;99.90;;;;;;5034934;28;20381;-73
2024/02/02 05:28:55;;;;;;;19.83;5.90;;;5.60;99.90;;;;;;5030944;28;20025;-73
2024/02/02 05:31:21;;;;;;;17.58;5.45;;;5.60;99.90;;;;;;5031464;28;20021;-72
2024/02/02 05:33:46;;;;;;;22.48;6.20;;;5.60;99.90;;;;;;5031024;28;20104;-73
2024/02/02 05:36:12;;;;;;;23.08;5.85;;;5.60;99.90;;;;;;5051342;28;20021;-72
2024/02/02 05:38:40;;;;;;;16.88;5.55;;;5.50;99.90;;;;;;5051333;28;20070;-72
2024/02/02 05:41:05;;;;;;;30.17;5.53;;;5.50;99.90;;;;;;5030721;28;20101;-72
2024/02/02 05:43:31;;;;;;;20.25;6.22;;;5.40;99.90;;;;;;5031402;28;20056;-72
2024/02/02 05:45:57;;;;;;;21.17;5.07;;;5.40;99.90;;;;;;5030490;28;20087;-72
2024/02/02 05:48:22;;;;;;;18.55;5.93;;;5.40;99.90;;;;;;5030763;28;20048;-72
2024/02/02 05:50:48;;;;;;;20.08;5.15;;;5.30;99.90;;;;;;5030938;28;20358;-72
2024/02/02 05:53:15;;;;;;;20.83;6.57;;;5.30;99.90;;;;;;5031183;28;20039;-72
2024/02/02 05:55:41;;;;;;;22.70;4.97;;;5.30;99.90;;;;;;5030955;28;20025;-73
2024/02/02 05:58:07;;;;;;;18.23;5.75;;;5.30;99.90;;;;;;5031344;28;20049;-72
2024/02/02 06:00:33;;;;;;;22.77;6.45;;;5.30;99.90;;;;;;5031000;28;20057;-73
2024/02/02 06:02:58;;;;;;;20.70;5.45;;;5.30;99.90;;;;;;5030789;28;20062;-73
2024/02/02 06:05:24;;;;;;;29.08;5.95;;;5.20;99.90;;;;;;5030854;28;20504;-72
2024/02/02 06:07:50;;;;;;;22.27;6.07;;;5.20;99.90;;;;;;5030947;28;20096;-73
2024/02/02 06:10:15;;;;;;;28.85;6.28;;;5.20;99.90;;;;;;5031786;28;20030;-72
2024/02/02 06:12:41;;;;;;;12.30;4.70;;;5.20;99.90;;;;;;5045103;28;20444;-72
2024/02/02 06:15:07;;;;;;;19.88;5.43;;;5.20;99.90;;;;;;5030876;28;20017;-72
2024/02/02 06:17:34;;;;;;;19.73;5.18;;;5.20;99.90;;;;;;5030943;28;20105;-72
2024/02/02 06:20:00;;;;;;;19.58;5.57;;;5.10;99.90;;;;;;5030473;28;20509;-72
2024/02/02 06:22:26;;;;;;;24.77;6.55;;;5.20;99.90;;;;;;5030794;28;20032;-72
2024/02/02 06:24:51;;;;;;;22.52;5.85;;;5.20;99.90;;;;;;5030696;28;20061;-72
2024/02/02 06:27:22;;;;;;;23.10;5.57;;;5.20;99.90;;;;;;5030871;28;20470;-73
2024/02/02 06:29:48;;;;;;;19.33;5.93;;;5.30;99.90;;;;;;5030489;28;20029;-73
2024/02/02 06:32:13;;;;;;;23.15;5.93;;;5.30;99.90;;;;;;5037831;28;20033;-72
2024/02/02 06:34:39;;;;;;;17.27;5.07;;;5.30;99.90;;;;;;5053100;28;20029;-72
2024/02/02 06:37:04;;;;;;;24.95;5.65;;;5.30;99.90;;;;;;5054200;28;20075;-72
2024/02/02 06:39:30;;;;;;;18.55;5.75;;;5.40;99.90;;;;;;5039955;28;20029;-72
2024/02/02 06:41:56;;;;;;;27.20;6.30;;;5.40;99.90;;;;;;5036814;28;20117;-73
2024/02/02 06:44:21;;;;;;;22.42;5.28;;;5.40;99.90;;;;;;5025771;28;20488;-72
2024/02/02 06:46:47;;;;;;;18.67;4.38;;;5.40;99.90;;;;;;5032923;28;20029;-73
2024/02/02 06:49:12;;;;;;;24.35;5.78;;;5.30;99.90;;;;;;5032591;28;20455;-72
2024/02/02 06:51:38;;;;;;;20.98;5.47;;;5.30;99.90;;;;;;5034057;28;20064;-72
2024/02/02 06:54:04;;;;;;;19.48;5.32;;;5.30;99.90;;;;;;5037659;28;20060;-72
2024/02/02 06:56:44;;;;;;;20.77;4.97;;;5.20;99.90;;;;;;5033962;28;20025;-73
2024/02/02 06:59:10;;;;;;;20.45;4.72;;;5.30;99.90;;;;;;5034384;28;20037;-72
2024/02/02 07:01:37;;;;;;;22.80;4.57;;;5.20;99.90;;;;;;5033513;28;20113;-72
2024/02/02 07:04:06;;;;;;;18.63;5.18;;;5.20;99.90;;;;;;5033462;28;20029;-72
2024/02/02 07:06:33;;;;;;;21.58;4.60;;;5.30;99.90;;;;;;5033820;28;20030;-73
2024/02/02 07:09:26;;;;;;;20.70;4.70;;;5.30;99.90;;;;;;5033578;28;20056;-72
2024/02/02 07:11:59;;;;;;;20.77;4.90;;;5.30;99.90;;;;;;5013753;28;20044;-73
2024/02/02 07:14:43;;;;;;;18.02;4.32;;;5.30;99.90;;;;;;5016724;28;20121;-73
2024/02/02 07:17:33;;;;;;;18.48;4.93;;;5.40;99.90;;;;;;5031206;28;20092;-73
2024/02/02 07:20:00;;;;;;;20.38;4.57;;;5.40;99.90;;;;;;5053241;28;20477;-72
2024/02/02 07:22:39;;;;;;;19.20;5.05;;;5.40;99.90;;;;;;5050643;28;20100;-72
2024/02/02 07:25:26;;;;;;;20.08;4.45;;;5.50;99.90;;;;;;5033403;28;20053;-72
2024/02/02 07:27:57;;;;;;;17.92;4.63;;;5.40;99.90;;;;;;5032539;28;20108;-72
2024/02/02 07:30:43;;;;;;;19.10;4.97;;;5.40;99.90;;;;;;5033566;28;20021;-73
2024/02/02 07:33:27;;;;;;;22.35;5.40;;;5.40;99.90;;;;;;5033191;28;20052;-72
2024/02/02 07:35:57;;;;;;;17.98;5.40;;;5.40;99.90;;;;;;5033301;28;20029;-72
2024/02/02 07:38:28;;;;;;;25.25;6.43;;;5.40;99.90;;;;;;5033088;28;20014;-72
2024/02/02 07:41:21;;;;;;;25.95;4.72;;;5.50;99.90;;;;;;5032778;28;20084;-73
2024/02/02 07:43:47;;;;;;;;;;;5.50;99.90;;;;;;5033180;28;20025;-73
2024/02/02 07:46:12;;;;;;;19.23;4.95;;;5.50;99.90;;;;;;5041285;28;20269;-72
2024/02/02 07:48:39;;;;;;;26.40;6.30;;;5.50;99.90;;;;;;5053033;28;20041;-73
2024/02/02 07:51:06;;;;;;;24.45;5.90;;;5.40;99.90;;;;;;5044285;28;20021;-73
2024/02/02 07:53:32;;;;;;;20.02;4.80;;;5.50;99.90;;;;;;5032623;28;20394;-73
2024/02/02 07:55:58;;;;;;;22.33;5.05;;;5.50;99.90;;;;;;5032645;28;20036;-72
2024/02/02 07:58:23;;;;;;;26.92;5.88;;;5.50;99.90;;;;;;5032652;28;20381;-73
2024/02/02 08:00:50;;;;;;;26.67;6.57;;;5.50;99.90;;;;;;5032896;28;20378;-72
2024/02/02 08:03:16;;;;;;;19.65;5.00;;;5.60;99.90;;;;;;5033127;28;20438;-72
2024/02/02 08:05:42;;;;;;;24.50;6.43;;;5.60;99.90;;;;;;5032375;28;20398;-73
2024/02/02 08:08:08;;;;;;;19.02;5.28;;;5.60;99.90;;;;;;5033877;28;20033;-72
2024/02/02 08:10:34;;;;;;;21.73;6.07;;;5.60;99.90;;;;;;5049967;28;20104;-72
2024/02/02 08:12:59;;;;;;;24.70;5.45;;;5.60;99.90;;;;;;5030979;28;20366;-73
2024/02/02 08:15:25;;;;;;;18.60;5.70;;;5.60;99.90;;;;;;5032438;28;20021;-71
2024/02/02 08:17:51;;;;;;;21.60;5.95;;;5.60;99.90;;;;;;5031469;28;20042;-73
2024/02/02 08:20:17;;;;;;;27.15;5.50;;;5.60;99.90;;;;;;5032371;28;20036;-72
2024/02/02 08:22:43;;;;;;;29.95;6.05;;;5.60;99.90;;;;;;5031921;28;20022;-72
2024/02/02 08:25:13;;;;;;;17.75;6.07;;;5.60;99.90;;;;;;5032223;28;20021;-73
2024/02/02 08:27:39;;;;;;;22.38;5.60;;;5.60;99.90;;;;;;5032959;28;20029;-72
2024/02/02 08:30:06;;;;;;;27.38;6.55;;;5.60;99.90;;;;;;5031829;28;20071;-72
2024/02/02 08:32:32;;;;;;;27.83;7.13;;;5.60;99.90;;;;;;5032333;28;20108;-72
2024/02/02 08:34:58;;;;;;;22.45;6.00;;;5.70;99.90;;;;;;5031786;28;20025;-73
2024/02/02 08:37:24;;;;;;;29.08;7.43;;;5.70;99.90;;;;;;5031754;28;20018;-72
2024/02/02 08:39:52;;;;;;;33.28;7.45;;;5.80;99.90;;;;;;5031748;28;20021;-72
2024/02/02 08:42:22;;;;;;;31.38;6.38;;;5.90;99.90;;;;;;5032044;28;20032;-73
2024/02/02 08:44:48;;;;;;;25.80;7.43;;;5.90;99.90;;;;;;5031579;28;20025;-72
2024/02/02 08:47:14;;;;;;;30.98;7.53;;;6.00;99.90;;;;;;5031928;28;20021;-73
2024/02/02 08:49:55;;;;;;;23.95;6.80;;;6.10;99.90;;;;;;5031813;28;20152;-72
2024/02/02 08:52:37;;;;;;;25.90;7.95;;;6.10;99.90;;;;;;5031045;28;20049;-73
2024/02/02 08:55:46;;;;;;;22.02;7.20;;;6.20;99.90;;;;;;5032012;28;20027;-73
2024/02/02 08:58:23;;;;;;;21.70;8.07;;;6.30;99.90;;;;;;5009195;28;20138;-72
2024/02/02 09:00:50;;;;;;;29.65;8.25;;;6.40;99.90;;;;;;5016378;28;20021;-73
2024/02/02 09:03:45;;;;;;;32.53;9.85;;;6.40;99.90;;;;;;5032036;28;20032;-72
2024/02/02 09:06:29;;;;;;;21.48;9.18;;;6.50;99.90;;;;;;5030364;28;20026;-73
2024/02/02 09:08:55;;;;;;;27.77;9.77;;;6.60;99.90;;;;;;5031147;28;20042;-73
2024/02/02 09:11:23;;;;;;;38.97;10.60;;;6.70;99.90;;;;;;5031475;28;20037;-73
2024/02/02 09:13:59;;;;;;;40.40;11.02;;;6.80;99.90;;;;;;5031322;28;20521;-73
2024/02/02 09:16:39;;;;;;;31.52;11.35;;;6.90;99.90;;;;;;5031704;28;20026;-73
2024/02/02 09:19:15;;;;;;;35.30;12.35;;;7.00;99.90;;;;;;5030892;28;20501;-73
2024/02/02 09:21:41;;;;;;;29.95;10.73;;;7.10;99.90;;;;;;5030982;28;20037;-72
2024/02/02 09:24:18;;;;;;;22.92;10.45;;;7.10;99.90;;;;;;5031670;28;20378;-73
2024/02/02 09:26:44;;;;;;;26.50;11.05;;;7.20;99.90;;;;;;5031413;28;20022;-73
2024/02/02 09:29:10;;;;;;;35.22;12.77;;;7.30;99.90;;;;;;5042914;28;20078;-72
2024/02/02 09:31:37;;;;;;;33.78;12.77;;;7.40;99.90;;;;;;5051189;28;20029;-72
2024/02/02 09:34:10;;;;;;;39.95;13.20;;;7.40;99.90;;;;;;5045301;28;20028;-73
2024/02/02 09:36:37;;;;;;;32.75;12.70;;;7.40;99.90;;;;;;5031279;28;20026;-73
2024/02/02 09:39:12;;;;;;;37.38;12.40;;;7.50;99.90;;;;;;5030268;28;20037;-72
2024/02/02 09:41:49;;;;;;;27.25;12.32;;;7.60;99.90;;;;;;5027406;28;20312;-73
2024/02/02 09:44:30;;;;;;;35.30;13.30;;;7.60;99.90;;;;;;5031415;28;20054;-73
2024/02/02 09:47:09;;;;;;;32.25;13.65;;;7.70;99.90;;;;;;5030698;28;20021;-72
2024/02/02 09:50:00;;;;;;;31.40;13.05;;;7.60;99.90;;;;;;5037249;28;20421;-73
2024/02/02 09:53:00;;;;;;;30.42;13.20;;;7.70;99.90;;;;;;5031182;28;20037;-73
2024/02/02 09:55:48;;;;;;;41.20;12.90;;;7.80;99.90;;;;;;5031163;28;20025;-73
2024/02/02 09:58:49;;;;;;;33.15;13.57;;;7.80;99.90;;;;;;5031400;28;20481;-72
2024/02/02 10:01:39;;;;;;;28.33;12.75;;;7.80;99.90;;;;;;5031412;28;20111;-73
2024/02/02 10:04:21;;;;;;;27.17;11.93;;;7.80;99.90;;;;;;5011469;28;20477;-73
2024/02/02 10:07:06;;;;;;;29.55;12.32;;;7.90;99.90;;;;;;5023358;28;20021;-73
2024/02/02 10:10:22;;;;;;;30.10;13.02;;;7.90;99.90;;;;;;5033591;28;20508;-73
2024/02/02 10:13:09;;;;;;;31.60;12.35;;;8.00;99.90;;;;;;5034649;28;20481;-73
2024/02/02 10:15:51;;;;;;;40.38;14.88;;;8.00;99.90;;;;;;5047927;28;20091;-73
2024/02/02 10:18:42;;;;;;;35.35;13.00;;;8.10;99.90;;;;;;5054856;28;20477;-73
2024/02/02 10:21:32;;;;;;;37.30;12.90;;;8.10;99.90;;;;;;5044135;28;20025;-73
2024/02/02 10:24:23;;;;;;;30.20;12.65;;;8.10;99.90;;;;;;5034752;28;20079;-72
2024/02/02 10:27:10;;;;;;;30.80;13.20;;;8.20;99.90;;;;;;5034422;28;20045;-73
2024/02/02 10:29:42;;;;;;;29.60;12.65;;;8.20;99.90;;;;;;5043159;28;20025;-73
2024/02/02 10:32:32;;;;;;;22.30;11.53;;;8.30;99.90;;;;;;5034639;28;20030;-72
2024/02/02 10:35:32;;;;;;;31.63;13.70;;;8.30;99.90;;;;;;5034193;28;20021;-73
2024/02/02 10:38:24;;;;;;;27.30;12.45;;;8.30;99.90;;;;;;5032508;28;20030;-73
2024/02/02 10:41:31;;;;;;;36.63;14.20;;;8.30;99.90;;;;;;5030504;28;20474;-73
2024/02/02 10:44:13;;;;;;;30.67;14.20;;;8.40;99.90;;;;;;5033796;28;20540;-73
2024/02/02 10:47:02;;;;;;;30.35;14.05;;;8.50;99.90;;;;;;5034551;28;20022;-73
2024/02/02 10:49:58;;;;;;;31.25;14.50;;;8.60;99.90;;;;;;5033848;28;20150;-73
2024/02/02 10:52:30;;;;;;;37.75;15.40;;;8.70;99.90;;;;;;5034138;28;20436;-72
2024/02/02 10:55:18;;;;;;;36.78;16.00;;;8.70;99.90;;;;;;5034179;28;20373;-73
2024/02/02 10:58:03;;;;;;;33.92;15.98;;;8.90;99.90;;;;;;5032614;28;20036;-73
2024/02/02 11:00:37;;;;;;;35.42;15.60;;;8.90;99.90;;;;;;5014430;28;20026;-73
2024/02/02 11:03:02;;;;;;;28.40;15.35;;;8.90;99.90;;;;;;5022593;28;20478;-73
2024/02/02 11:05:46;;;;;;;34.45;15.52;;;9.00;99.90;;;;;;5034050;28;20119;-73
2024/02/02 11:08:16;;;;;;;34.20;17.35;;;9.00;99.90;;;;;;5033967;28;20393;-73
2024/02/02 11:10:41;;;;;;;30.92;16.50;;;9.00;99.90;;;;;;5035724;28;20413;-73
2024/02/02 11:13:22;;;;;;;42.17;17.60;;;9.00;99.90;;;;;;5033601;28;20034;-73
2024/02/02 11:16:10;;;;;;;42.28;17.25;;;9.10;99.90;;;;;;5033414;28;20022;-72
2024/02/02 11:18:47;;;;;;;32.60;17.98;;;9.00;99.90;;;;;;5034038;28;20025;-73
2024/02/02 11:21:38;;;;;;;42.17;19.77;;;9.10;99.90;;;;;;5051255;28;20028;-73
2024/02/02 11:24:26;;;;;;;34.88;19.17;;;9.10;99.90;;;;;;5043481;28;20477;-73
2024/02/02 11:27:10;;;;;;;36.88;19.52;;;9.10;99.90;;;;;;5033368;28;20502;-73
2024/02/02 11:30:01;;;;;;;40.63;18.67;;;9.10;99.90;;;;;;5033093;28;20021;-72
2024/02/02 11:33:06;;;;;;;45.95;18.20;;;9.10;99.90;;;;;;5033724;28;20088;-73
2024/02/02 11:35:57;;;;;;;34.78;17.77;;;9.10;99.90;;;;;;5032962;28;20064;-73
2024/02/02 11:39:09;;;;;;;40.88;19.73;;;9.20;99.90;;;;;;5033366;28;20095;-73
2024/02/02 11:41:37;;;;;;;46.28;20.23;;;9.20;99.90;;;;;;5029179;28;20022;-73
2024/02/02 11:44:04;;;;;;;40.50;20.23;;;9.20;99.90;;;;;;5033139;28;20109;-73
2024/02/02 11:46:32;;;;;;;41.95;18.23;;;9.30;99.90;;;;;;5031889;28;20033;-73
2024/02/02 11:49:07;;;;;;;40.92;20.85;;;9.30;99.90;;;;;;5036559;28;20044;-73
2024/02/02 11:51:38;;;;;;;48.80;20.05;;;9.30;99.90;;;;;;5053092;28;20025;-73
2024/02/02 11:54:25;;;;;;;39.38;19.83;;;9.30;99.90;;;;;;5042369;28;20029;-73
2024/02/02 11:56:52;;;;;;;39.00;18.83;;;9.30;99.90;;;;;;5032705;28;20108;-73
2024/02/02 11:59:19;;;;;;;44.28;19.35;;;9.30;99.90;;;;;;5032657;28;20025;-73
2024/02/02 12:02:05;;;;;;;37.55;19.65;;;9.20;99.90;;;;;;5032532;28;20029;-73
2024/02/02 12:04:56;;;;;;;48.28;20.80;;;9.30;99.90;;;;;;5033558;28;20429;-73
2024/02/02 12:07:24;;;;;;;42.35;18.83;;;9.20;99.90;;;;;;5033011;28;20056;-73
2024/02/02 12:09:56;;;;;;;40.47;18.73;;;9.30;99.90;;;;;;5033076;28;20080;-73
2024/02/02 12:12:30;;;;;;;32.85;17.58;;;9.20;99.90;;;;;;5032774;28;20037;-73
2024/02/02 12:14:56;;;;;;;37.50;16.67;;;9.10;99.90;;;;;;5032393;28;20108;-73
2024/02/02 12:17:22;;;;;;;39.92;16.27;;;9.10;99.90;;;;;;5032671;28;20064;-73
2024/02/02 12:19:48;;;;;;;44.85;16.45;;;9.10;99.90;;;;;;5032167;28;20025;-73
2024/02/02 12:22:14;;;;;;;37.95;18.90;;;9.10;99.90;;;;;;5032770;28;20059;-73
2024/02/02 12:24:41;;;;;;;36.03;16.77;;;9.10;99.90;;;;;;5032704;28;20104;-73
2024/02/02 12:27:09;;;;;;;32.80;17.45;;;9.10;99.90;;;;;;5032329;28;20601;-73
2024/02/02 12:29:38;;;;;;;47.25;21.58;;;9.20;99.90;;;;;;5033343;28;20432;-73
2024/02/02 12:32:05;;;;;;;41.10;21.55;;;9.20;99.90;;;;;;5031289;28;20025;-73
2024/02/02 12:34:32;;;;;;;43.53;21.65;;;9.20;99.90;;;;;;5032140;28;20044;-73
2024/02/02 12:36:59;;;;;;;44.70;21.88;;;9.30;99.90;;;;;;5031786;28;20025;-73
2024/02/02 12:39:30;;;;;;;40.70;22.55;;;9.30;99.90;;;;;;5034356;28;20095;-72
2024/02/02 12:41:57;;;;;;;43.42;22.95;;;9.30;99.90;;;;;;5051807;28;20021;-73
2024/02/02 12:44:25;;;;;;;47.70;23.50;;;9.30;99.90;;;;;;5039559;28;20029;-73
2024/02/02 12:46:50;;;;;;;47.40;25.13;;;9.30;99.90;;;;;;5031704;28;20025;-73
2024/02/02 12:49:16;;;;;;;45.42;25.15;;;9.30;99.90;;;;;;5031858;28;20379;-73
2024/02/02 12:51:43;;;;;;;50.28;25.98;;;9.20;99.90;;;;;;5031539;28;20095;-74
2024/02/02 12:54:10;;;;;;;48.78;26.85;;;9.20;99.90;;;;;;5034311;28;20030;-73
2024/02/02 12:56:36;;;;;;;55.25;27.88;;;9.20;99.90;;;;;;5037103;28;20067;-73
2024/02/02 12:59:04;;;;;;;50.70;27.17;;;9.20;99.90;;;;;;5031490;28;20584;-73